sensor_id;sensor_type;location;lat;lon;timestamp;pressure;altitude;pressure_sealevel;temperature;humidity
39789;BME280;25478;42.626;23.320;2023-03-04T00:02:10;93061.59;;;4.21;100.00
39789;BME280;25478;42.626;23.320;2023-03-04T00:04:35;93078.06;;;4.25;100.00
39789;BME280;25478;42.626;23.320;2023-03-04T00:07:00;93071.25;;;4.20;100.00
39789;BME280;25478;42.626;23.320;2023-03-04T00:09:26;93071.56;;;4.19;100.00
39789;BME280;25478;42.626;23.320;2023-03-04T00:11:51;93069.22;;;4.14;100.00
39789;BME280;25478;42.626;23.320;2023-03-04T00:14:17;93064.66;;;4.11;100.00
39789;BME280;25478;42.626;23.320;2023-03-04T00:16:42;93067.94;;;4.08;100.00
39789;BME280;25478;42.626;23.320;2023-03-04T00:19:09;93060.88;;;4.08;100.00
39789;BME280;25478;42.626;23.320;2023-03-04T00:21:35;93066.50;;;4.10;100.00
39789;BME280;25478;42.626;23.320;2023-03-04T00:24:01;93056.44;;;4.09;100.00
39789;BME280;25478;42.626;23.320;2023-03-04T00:26:26;93062.50;;;4.13;100.00
39789;BME280;25478;42.626;23.320;2023-03-04T00:28:52;93065.09;;;4.13;100.00
39789;BME280;25478;42.626;23.320;2023-03-04T00:31:17;93062.91;;;4.15;100.00
39789;BME280;25478;42.626;23.320;2023-03-04T00:33:43;93062.56;;;4.16;100.00
39789;BME280;25478;42.626;23.320;2023-03-04T00:36:09;93061.16;;;4.19;100.00
39789;BME280;25478;42.626;23.320;2023-03-04T00:38:34;93063.09;;;4.22;100.00
39789;BME280;25478;42.626;23.320;2023-03-04T00:41:01;93060.50;;;4.22;100.00
39789;BME280;25478;42.626;23.320;2023-03-04T00:43:26;93057.56;;;4.23;100.00
39789;BME280;25478;42.626;23.320;2023-03-04T00:45:52;93064.28;;;4.24;100.00
39789;BME280;25478;42.626;23.320;2023-03-04T00:48:17;93056.88;;;4.27;100.00
39789;BME280;25478;42.626;23.320;2023-03-04T00:50:43;93055.03;;;4.27;100.00
39789;BME280;25478;42.626;23.320;2023-03-04T00:53:09;93058.38;;;4.28;100.00
39789;BME280;25478;42.626;23.320;2023-03-04T00:55:35;93065.91;;;4.29;100.00
39789;BME280;25478;42.626;23.320;2023-03-04T00:58:02;93051.00;;;4.30;100.00
39789;BME280;25478;42.626;23.320;2023-03-04T01:00:27;93050.69;;;4.31;100.00
39789;BME280;25478;42.626;23.320;2023-03-04T01:02:53;93061.84;;;4.32;100.00
39789;BME280;25478;42.626;23.320;2023-03-04T01:05:21;93060.00;;;4.32;100.00
39789;BME280;25478;42.626;23.320;2023-03-04T01:07:46;93057.75;;;4.31;100.00
39789;BME280;25478;42.626;23.320;2023-03-04T01:10:13;93051.00;;;4.30;100.00
39789;BME280;25478;42.626;23.320;2023-03-04T01:12:41;93049.47;;;4.29;100.00
39789;BME280;25478;42.626;23.320;2023-03-04T01:15:11;93044.94;;;4.26;100.00
39789;BME280;25478;42.626;23.320;2023-03-04T01:17:38;93047.88;;;4.24;100.00
39789;BME280;25478;42.626;23.320;2023-03-04T01:20:05;93044.94;;;4.26;100.00
39789;BME280;25478;42.626;23.320;2023-03-04T01:22:31;93043.44;;;4.24;100.00
39789;BME280;25478;42.626;23.320;2023-03-04T01:24:58;93034.09;;;4.23;100.00
39789;BME280;25478;42.626;23.320;2023-03-04T01:27:24;93036.72;;;4.23;100.00
39789;BME280;25478;42.626;23.320;2023-03-04T01:29:50;93032.94;;;4.21;100.00
39789;BME280;25478;42.626;23.320;2023-03-04T01:32:15;93029.47;;;4.17;100.00
39789;BME280;25478;42.626;23.320;2023-03-04T01:34:41;93027.88;;;4.12;100.00
39789;BME280;25478;42.626;23.320;2023-03-04T01:37:07;93027.00;;;4.08;100.00
39789;BME280;25478;42.626;23.320;2023-03-04T01:39:33;93027.25;;;4.03;100.00
39789;BME280;25478;42.626;23.320;2023-03-04T01:41:59;93005.19;;;3.85;100.00
39789;BME280;25478;42.626;23.320;2023-03-04T01:44:25;93013.88;;;3.89;100.00
39789;BME280;25478;42.626;23.320;2023-03-04T01:46:53;93015.38;;;3.90;100.00
39789;BME280;25478;42.626;23.320;2023-03-04T01:49:19;93005.69;;;3.75;100.00
39789;BME280;25478;42.626;23.320;2023-03-04T01:51:50;93024.28;;;3.89;100.00
39789;BME280;25478;42.626;23.320;2023-03-04T01:54:17;93011.59;;;3.87;100.00
39789;BME280;25478;42.626;23.320;2023-03-04T01:56:44;93014.97;;;3.88;100.00
39789;BME280;25478;42.626;23.320;2023-03-04T01:59:18;93011.28;;;3.89;100.00
39789;BME280;25478;42.626;23.320;2023-03-04T02:01:50;92996.56;;;3.81;100.00
39789;BME280;25478;42.626;23.320;2023-03-04T02:04:18;93022.09;;;3.91;100.00
39789;BME280;25478;42.626;23.320;2023-03-04T02:06:46;93019.50;;;3.91;100.00
39789;BME280;25478;42.626;23.320;2023-03-04T02:09:14;92995.03;;;3.80;100.00
39789;BME280;25478;42.626;23.320;2023-03-04T02:11:40;93014.72;;;3.93;100.00
39789;BME280;25478;42.626;23.320;2023-03-04T02:14:06;93003.13;;;3.90;100.00
39789;BME280;25478;42.626;23.320;2023-03-04T02:16:32;93009.66;;;3.84;100.00
39789;BME280;25478;42.626;23.320;2023-03-04T02:18:58;93010.66;;;3.80;100.00
39789;BME280;25478;42.626;23.320;2023-03-04T02:21:31;93008.28;;;3.75;100.00
39789;BME280;25478;42.626;23.320;2023-03-04T02:26:27;93006.97;;;3.81;100.00
39789;BME280;25478;42.626;23.320;2023-03-04T02:28:56;93011.50;;;3.84;100.00
39789;BME280;25478;42.626;23.320;2023-03-04T02:31:26;93001.50;;;3.86;100.00
39789;BME280;25478;42.626;23.320;2023-03-04T02:33:56;92999.34;;;3.88;100.00
39789;BME280;25478;42.626;23.320;2023-03-04T02:36:26;93006.72;;;3.86;100.00
39789;BME280;25478;42.626;23.320;2023-03-04T02:38:53;92997.84;;;3.87;100.00
39789;BME280;25478;42.626;23.320;2023-03-04T02:41:23;93003.03;;;3.87;100.00
39789;BME280;25478;42.626;23.320;2023-03-04T02:43:53;92994.13;;;3.88;100.00
39789;BME280;25478;42.626;23.320;2023-03-04T02:46:20;92984.19;;;3.78;100.00
39789;BME280;25478;42.626;23.320;2023-03-04T02:48:46;92991.22;;;3.77;100.00
39789;BME280;25478;42.626;23.320;2023-03-04T02:51:11;92988.56;;;3.74;100.00
39789;BME280;25478;42.626;23.320;2023-03-04T02:53:37;92989.22;;;3.71;100.00
39789;BME280;25478;42.626;23.320;2023-03-04T02:56:03;92996.16;;;3.66;100.00
39789;BME280;25478;42.626;23.320;2023-03-04T02:58:33;93002.06;;;3.63;100.00
39789;BME280;25478;42.626;23.320;2023-03-04T03:00:59;92990.34;;;3.57;100.00
39789;BME280;25478;42.626;23.320;2023-03-04T03:03:26;92999.78;;;3.62;100.00
39789;BME280;25478;42.626;23.320;2023-03-04T03:05:53;92981.25;;;3.51;100.00
39789;BME280;25478;42.626;23.320;2023-03-04T03:08:18;92994.25;;;3.63;100.00
39789;BME280;25478;42.626;23.320;2023-03-04T03:10:44;92989.03;;;3.63;100.00
39789;BME280;25478;42.626;23.320;2023-03-04T03:13:10;92994.66;;;3.65;100.00
39789;BME280;25478;42.626;23.320;2023-03-04T03:15:36;92998.78;;;3.66;100.00
39789;BME280;25478;42.626;23.320;2023-03-04T03:18:11;92996.94;;;3.67;100.00
39789;BME280;25478;42.626;23.320;2023-03-04T03:20:36;92988.34;;;3.66;100.00
39789;BME280;25478;42.626;23.320;2023-03-04T03:23:02;92996.16;;;3.66;100.00
39789;BME280;25478;42.626;23.320;2023-03-04T03:25:29;92996.59;;;3.68;100.00
39789;BME280;25478;42.626;23.320;2023-03-04T03:27:55;92992.06;;;3.65;100.00
39789;BME280;25478;42.626;23.320;2023-03-04T03:30:21;92989.44;;;3.65;100.00
39789;BME280;25478;42.626;23.320;2023-03-04T03:32:46;92971.59;;;3.52;100.00
39789;BME280;25478;42.626;23.320;2023-03-04T03:35:12;92990.13;;;3.62;100.00
39789;BME280;25478;42.626;23.320;2023-03-04T03:37:39;92988.28;;;3.63;100.00
39789;BME280;25478;42.626;23.320;2023-03-04T03:40:04;92971.50;;;3.48;100.00
39789;BME280;25478;42.626;23.320;2023-03-04T03:42:30;92986.56;;;3.55;100.00
39789;BME280;25478;42.626;23.320;2023-03-04T03:44:56;92987.13;;;3.48;100.00
39789;BME280;25478;42.626;23.320;2023-03-04T03:47:21;92960.22;;;3.28;100.00
39789;BME280;25478;42.626;23.320;2023-03-04T03:49:47;92966.81;;;3.26;100.00
39789;BME280;25478;42.626;23.320;2023-03-04T03:52:12;92975.91;;;3.32;100.00
39789;BME280;25478;42.626;23.320;2023-03-04T03:54:38;92974.09;;;3.20;100.00
39789;BME280;25478;42.626;23.320;2023-03-04T03:57:03;92973.16;;;3.13;100.00
39789;BME280;25478;42.626;23.320;2023-03-04T03:59:29;92972.53;;;3.03;100.00
39789;BME280;25478;42.626;23.320;2023-03-04T04:01:54;92972.31;;;2.96;100.00
39789;BME280;25478;42.626;23.320;2023-03-04T04:04:20;92965.06;;;2.90;100.00
39789;BME280;25478;42.626;23.320;2023-03-04T04:06:45;92973.41;;;2.83;100.00
39789;BME280;25478;42.626;23.320;2023-03-04T04:09:11;92968.00;;;2.76;100.00
39789;BME280;25478;42.626;23.320;2023-03-04T04:11:36;92970.84;;;2.71;100.00
39789;BME280;25478;42.626;23.320;2023-03-04T04:14:02;92959.25;;;2.56;100.00
39789;BME280;25478;42.626;23.320;2023-03-04T04:16:27;92974.09;;;2.56;100.00
39789;BME280;25478;42.626;23.320;2023-03-04T04:18:53;92975.38;;;2.49;100.00
39789;BME280;25478;42.626;23.320;2023-03-04T04:21:18;92965.09;;;2.41;100.00
39789;BME280;25478;42.626;23.320;2023-03-04T04:23:44;92972.13;;;2.40;100.00
39789;BME280;25478;42.626;23.320;2023-03-04T04:26:09;92969.44;;;2.37;100.00
39789;BME280;25478;42.626;23.320;2023-03-04T04:28:35;92974.50;;;2.33;100.00
39789;BME280;25478;42.626;23.320;2023-03-04T04:31:00;92963.03;;;2.22;100.00
39789;BME280;25478;42.626;23.320;2023-03-04T04:33:26;92967.25;;;2.26;100.00
39789;BME280;25478;42.626;23.320;2023-03-04T04:35:51;92973.09;;;2.23;100.00
39789;BME280;25478;42.626;23.320;2023-03-04T04:38:17;92969.31;;;2.21;100.00
39789;BME280;25478;42.626;23.320;2023-03-04T04:40:43;92966.28;;;2.19;100.00
39789;BME280;25478;42.626;23.320;2023-03-04T04:43:08;92977.44;;;2.19;100.00
39789;BME280;25478;42.626;23.320;2023-03-04T04:45:34;92953.59;;;2.05;100.00
39789;BME280;25478;42.626;23.320;2023-03-04T04:47:59;92969.19;;;2.17;100.00
39789;BME280;25478;42.626;23.320;2023-03-04T04:50:25;92955.00;;;2.03;100.00
39789;BME280;25478;42.626;23.320;2023-03-04T04:52:51;92971.69;;;2.14;100.00
39789;BME280;25478;42.626;23.320;2023-03-04T04:55:17;92975.03;;;2.14;100.00
39789;BME280;25478;42.626;23.320;2023-03-04T04:57:42;92970.59;;;2.15;100.00
39789;BME280;25478;42.626;23.320;2023-03-04T05:00:09;92973.19;;;2.15;100.00
39789;BME280;25478;42.626;23.320;2023-03-04T05:02:35;92972.09;;;2.16;100.00
39789;BME280;25478;42.626;23.320;2023-03-04T05:05:02;92975.78;;;2.15;100.00
39789;BME280;25478;42.626;23.320;2023-03-04T05:07:28;92984.66;;;2.14;100.00
39789;BME280;25478;42.626;23.320;2023-03-04T05:09:53;92986.50;;;2.13;100.00
39789;BME280;25478;42.626;23.320;2023-03-04T05:12:19;92985.09;;;2.16;100.00
39789;BME280;25478;42.626;23.320;2023-03-04T05:14:44;92991.81;;;2.17;100.00
39789;BME280;25478;42.626;23.320;2023-03-04T05:17:10;92982.91;;;2.18;100.00
39789;BME280;25478;42.626;23.320;2023-03-04T05:19:35;92994.06;;;2.18;100.00
39789;BME280;25478;42.626;23.320;2023-03-04T05:22:01;92992.34;;;2.22;100.00
39789;BME280;25478;42.626;23.320;2023-03-04T05:24:27;92995.81;;;2.26;100.00
39789;BME280;25478;42.626;23.320;2023-03-04T05:26:52;93003.41;;;2.32;100.00
39789;BME280;25478;42.626;23.320;2023-03-04T05:29:18;93009.91;;;2.38;100.00
39789;BME280;25478;42.626;23.320;2023-03-04T05:31:43;93008.28;;;2.45;100.00
39789;BME280;25478;42.626;23.320;2023-03-04T05:34:09;92990.09;;;2.45;100.00
39789;BME280;25478;42.626;23.320;2023-03-04T05:36:34;93008.41;;;2.61;100.00
39789;BME280;25478;42.626;23.320;2023-03-04T05:39:00;93010.16;;;2.69;100.00
39789;BME280;25478;42.626;23.320;2023-03-04T05:41:25;93013.41;;;2.78;100.00
39789;BME280;25478;42.626;23.320;2023-03-04T05:43:51;93006.25;;;2.88;100.00
39789;BME280;25478;42.626;23.320;2023-03-04T05:46:17;93010.88;;;2.94;100.00
39789;BME280;25478;42.626;23.320;2023-03-04T05:48:50;93012.28;;;3.04;100.00
39789;BME280;25478;42.626;23.320;2023-03-04T05:51:16;93004.66;;;3.11;100.00
39789;BME280;25478;42.626;23.320;2023-03-04T05:53:41;93008.22;;;3.19;100.00
39789;BME280;25478;42.626;23.320;2023-03-04T05:56:09;93011.47;;;3.28;100.00
39789;BME280;25478;42.626;23.320;2023-03-04T05:58:35;93014.72;;;3.37;100.00
39789;BME280;25478;42.626;23.320;2023-03-04T06:01:01;93012.28;;;3.44;100.00
39789;BME280;25478;42.626;23.320;2023-03-04T06:03:27;93009.47;;;3.49;100.00
39789;BME280;25478;42.626;23.320;2023-03-04T06:05:52;93009.25;;;3.54;100.00
39789;BME280;25478;42.626;23.320;2023-03-04T06:08:18;92991.91;;;3.46;100.00
39789;BME280;25478;42.626;23.320;2023-03-04T06:10:44;93017.41;;;3.68;100.00
39789;BME280;25478;42.626;23.320;2023-03-04T06:13:09;93016.09;;;3.75;100.00
39789;BME280;25478;42.626;23.320;2023-03-04T06:15:35;93020.75;;;3.81;100.00
39789;BME280;25478;42.626;23.320;2023-03-04T06:18:01;93020.19;;;3.88;100.00
39789;BME280;25478;42.626;23.320;2023-03-04T06:20:26;93025.53;;;3.95;100.00
39789;BME280;25478;42.626;23.320;2023-03-04T06:22:52;93015.31;;;4.02;100.00
39789;BME280;25478;42.626;23.320;2023-03-04T06:25:18;93024.06;;;4.10;100.00
39789;BME280;25478;42.626;23.320;2023-03-04T06:27:43;93029.47;;;4.17;100.00
39789;BME280;25478;42.626;23.320;2023-03-04T06:30:09;93026.28;;;4.23;100.00
39789;BME280;25478;42.626;23.320;2023-03-04T06:32:35;93018.88;;;4.26;100.00
39789;BME280;25478;42.626;23.320;2023-03-04T06:35:00;93028.97;;;4.27;100.00
39789;BME280;25478;42.626;23.320;2023-03-04T06:37:26;93026.03;;;4.29;100.00
39789;BME280;25478;42.626;23.320;2023-03-04T06:39:51;93031.69;;;4.31;100.00
39789;BME280;25478;42.626;23.320;2023-03-04T06:42:17;93031.22;;;4.29;100.00
39789;BME280;25478;42.626;23.320;2023-03-04T06:44:43;93030.00;;;4.22;100.00
39789;BME280;25478;42.626;23.320;2023-03-04T06:47:09;93039.22;;;4.20;100.00
39789;BME280;25478;42.626;23.320;2023-03-04T06:49:34;93050.22;;;4.13;100.00
39789;BME280;25478;42.626;23.320;2023-03-04T06:52:00;93043.75;;;4.07;100.00
39789;BME280;25478;42.626;23.320;2023-03-04T06:54:26;93046.56;;;4.02;100.00
39789;BME280;25478;42.626;23.320;2023-03-04T06:56:51;93046.84;;;3.97;100.00
39789;BME280;25478;42.626;23.320;2023-03-04T06:59:17;93044.13;;;3.93;100.00
39789;BME280;25478;42.626;23.320;2023-03-04T07:01:42;93038.50;;;3.91;100.00
39789;BME280;25478;42.626;23.320;2023-03-04T07:04:08;93043.03;;;3.94;100.00
39789;BME280;25478;42.626;23.320;2023-03-04T07:06:33;93045.31;;;3.96;100.00
39789;BME280;25478;42.626;23.320;2023-03-04T07:08:59;93016.84;;;3.75;100.00
39789;BME280;25478;42.626;23.320;2023-03-04T07:11:25;93047.91;;;3.96;100.00
39789;BME280;25478;42.626;23.320;2023-03-04T07:13:51;93048.75;;;4.00;100.00
39789;BME280;25478;42.626;23.320;2023-03-04T07:16:19;93051.78;;;4.02;100.00
39789;BME280;25478;42.626;23.320;2023-03-04T07:18:45;93052.13;;;4.01;100.00
39789;BME280;25478;42.626;23.320;2023-03-04T07:21:11;93048.75;;;4.00;100.00
39789;BME280;25478;42.626;23.320;2023-03-04T07:23:37;93052.13;;;4.01;100.00
39789;BME280;25478;42.626;23.320;2023-03-04T07:26:03;93050.38;;;4.05;100.00
39789;BME280;25478;42.626;23.320;2023-03-04T07:28:29;93052.72;;;4.10;100.00
39789;BME280;25478;42.626;23.320;2023-03-04T07:30:55;93054.75;;;4.16;100.00
39789;BME280;25478;42.626;23.320;2023-03-04T07:33:20;93062.78;;;4.23;100.00
39789;BME280;25478;42.626;23.320;2023-03-04T07:35:46;93038.78;;;4.18;100.00
39789;BME280;25478;42.626;23.320;2023-03-04T07:38:11;93051.78;;;4.30;100.00
39789;BME280;25478;42.626;23.320;2023-03-04T07:40:37;93057.16;;;4.37;100.00
39789;BME280;25478;42.626;23.320;2023-03-04T07:43:03;93059.50;;;4.42;100.00
39789;BME280;25478;42.626;23.320;2023-03-04T07:45:29;93058.81;;;4.45;100.00
39789;BME280;25478;42.626;23.320;2023-03-04T07:47:54;93052.09;;;4.44;100.00
39789;BME280;25478;42.626;23.320;2023-03-04T07:50:21;93048.09;;;4.47;100.00
39789;BME280;25478;42.626;23.320;2023-03-04T07:52:48;93043.13;;;4.42;100.00
39789;BME280;25478;42.626;23.320;2023-03-04T07:55:15;93054.06;;;4.47;100.00
39789;BME280;25478;42.626;23.320;2023-03-04T07:57:42;93052.22;;;4.48;100.00
39789;BME280;25478;42.626;23.320;2023-03-04T08:00:10;93048.75;;;4.44;100.00
39789;BME280;25478;42.626;23.320;2023-03-04T08:02:39;93049.75;;;4.39;100.00
39789;BME280;25478;42.626;23.320;2023-03-04T08:05:05;93033.25;;;4.19;100.00
39789;BME280;25478;42.626;23.320;2023-03-04T08:07:31;93042.84;;;4.31;100.00
39789;BME280;25478;42.626;23.320;2023-03-04T08:09:56;93049.59;;;4.32;100.00
39789;BME280;25478;42.626;23.320;2023-03-04T08:12:22;93050.34;;;4.33;100.00
39789;BME280;25478;42.626;23.320;2023-03-04T08:14:49;93053.47;;;4.38;100.00
39789;BME280;25478;42.626;23.320;2023-03-04T08:17:16;93047.91;;;4.40;100.00
39789;BME280;25478;42.626;23.320;2023-03-04T08:19:41;93049.41;;;4.41;100.00
39789;BME280;25478;42.626;23.320;2023-03-04T08:22:07;93051.63;;;4.39;100.00
39789;BME280;25478;42.626;23.320;2023-03-04T08:24:32;93045.66;;;4.38;100.00
39789;BME280;25478;42.626;23.320;2023-03-04T08:26:58;93050.59;;;4.43;100.00
39789;BME280;25478;42.626;23.320;2023-03-04T08:29:24;93051.13;;;4.49;100.00
39789;BME280;25478;42.626;23.320;2023-03-04T08:31:51;93042.78;;;4.59;100.00
39789;BME280;25478;42.626;23.320;2023-03-04T08:34:22;93040.75;;;4.68;100.00
39789;BME280;25478;42.626;23.320;2023-03-04T08:36:48;93046.16;;;4.75;100.00
39789;BME280;25478;42.626;23.320;2023-03-04T08:39:15;93054.31;;;4.90;99.98
39789;BME280;25478;42.626;23.320;2023-03-04T08:41:41;93038.97;;;5.04;99.99
39789;BME280;25478;42.626;23.320;2023-03-04T08:44:07;93039.28;;;5.18;99.45
39789;BME280;25478;42.626;23.320;2023-03-04T08:46:35;93040.34;;;5.33;97.98
39789;BME280;25478;42.626;23.320;2023-03-04T08:49:01;93021.22;;;5.29;97.69
39789;BME280;25478;42.626;23.320;2023-03-04T08:51:26;93036.84;;;5.45;97.06
39789;BME280;25478;42.626;23.320;2023-03-04T08:53:52;93009.72;;;5.49;96.75
39789;BME280;25478;42.626;23.320;2023-03-04T08:56:17;93035.78;;;5.84;95.37
39789;BME280;25478;42.626;23.320;2023-03-04T08:58:43;93029.69;;;5.96;95.38
39789;BME280;25478;42.626;23.320;2023-03-04T09:01:10;93027.72;;;6.12;94.30
39789;BME280;25478;42.626;23.320;2023-03-04T09:03:36;93029.47;;;6.24;93.73
39789;BME280;25478;42.626;23.320;2023-03-04T09:06:03;93012.66;;;6.25;92.58
39789;BME280;25478;42.626;23.320;2023-03-04T09:08:30;93018.38;;;6.31;91.98
39789;BME280;25478;42.626;23.320;2023-03-04T09:10:55;93026.66;;;6.36;91.39
39789;BME280;25478;42.626;23.320;2023-03-04T09:13:22;93027.81;;;6.39;91.81
39789;BME280;25478;42.626;23.320;2023-03-04T09:15:50;93024.94;;;6.44;91.69
39789;BME280;25478;42.626;23.320;2023-03-04T09:18:17;93022.84;;;6.53;90.71
39789;BME280;25478;42.626;23.320;2023-03-04T09:20:44;93021.84;;;6.61;89.58
39789;BME280;25478;42.626;23.320;2023-03-04T09:23:09;92998.53;;;6.53;89.54
39789;BME280;25478;42.626;23.320;2023-03-04T09:25:36;93017.19;;;6.74;89.10
39789;BME280;25478;42.626;23.320;2023-03-04T09:28:02;93024.09;;;6.86;88.77
39789;BME280;25478;42.626;23.320;2023-03-04T09:30:28;93013.50;;;7.01;87.63
39789;BME280;25478;42.626;23.320;2023-03-04T09:32:53;93008.88;;;7.18;86.81
39789;BME280;25478;42.626;23.320;2023-03-04T09:35:19;93009.50;;;7.38;85.81
39789;BME280;25478;42.626;23.320;2023-03-04T09:37:44;93006.78;;;7.57;85.07
39789;BME280;25478;42.626;23.320;2023-03-04T09:40:20;93001.31;;;7.73;84.02
39789;BME280;25478;42.626;23.320;2023-03-04T09:42:52;92999.22;;;7.85;84.19
39789;BME280;25478;42.626;23.320;2023-03-04T09:45:21;92999.34;;;7.96;83.27
39789;BME280;25478;42.626;23.320;2023-03-04T09:47:50;92997.91;;;8.02;82.42
39789;BME280;25478;42.626;23.320;2023-03-04T09:50:18;93003.88;;;7.99;81.56
39789;BME280;25478;42.626;23.320;2023-03-04T09:53:04;92997.28;;;7.79;81.90
39789;BME280;25478;42.626;23.320;2023-03-04T09:55:38;93002.69;;;7.59;82.19
39789;BME280;25478;42.626;23.320;2023-03-04T10:00:55;92995.44;;;7.23;82.86
39789;BME280;25478;42.626;23.320;2023-03-04T10:03:46;92993.25;;;7.25;82.71
39789;BME280;25478;42.626;23.320;2023-03-04T10:06:19;92984.44;;;7.10;83.58
39789;BME280;25478;42.626;23.320;2023-03-04T10:11:19;92988.56;;;7.11;83.35
39789;BME280;25478;42.626;23.320;2023-03-04T10:16:25;92982.38;;;6.96;83.47
39789;BME280;25478;42.626;23.320;2023-03-04T10:19:20;92975.97;;;6.90;83.42
39789;BME280;25478;42.626;23.320;2023-03-04T10:21:46;92981.28;;;6.97;83.46
39789;BME280;25478;42.626;23.320;2023-03-04T10:24:14;92972.00;;;7.03;83.47
39789;BME280;25478;42.626;23.320;2023-03-04T10:26:50;92974.44;;;7.16;82.38
39789;BME280;25478;42.626;23.320;2023-03-04T10:29:20;92966.97;;;7.18;82.71
39789;BME280;25478;42.626;23.320;2023-03-04T10:31:47;92960.38;;;7.27;82.76
39789;BME280;25478;42.626;23.320;2023-03-04T10:34:15;92963.53;;;7.40;82.69
39789;BME280;25478;42.626;23.320;2023-03-04T10:42:02;92947.81;;;7.74;80.17
39789;BME280;25478;42.626;23.320;2023-03-04T10:44:28;92945.22;;;7.74;81.09
39789;BME280;25478;42.626;23.320;2023-03-04T10:46:56;92939.69;;;7.82;80.48
39789;BME280;25478;42.626;23.320;2023-03-04T10:49:24;92934.06;;;7.84;80.20
39789;BME280;25478;42.626;23.320;2023-03-04T10:51:53;92938.97;;;7.89;79.67
39789;BME280;25478;42.626;23.320;2023-03-04T10:57:02;92929.66;;;7.92;78.72
39789;BME280;25478;42.626;23.320;2023-03-04T10:59:46;92931.00;;;7.78;79.14
39789;BME280;25478;42.626;23.320;2023-03-04T11:04:56;92918.13;;;7.62;80.14
39789;BME280;25478;42.626;23.320;2023-03-04T11:07:29;92912.84;;;7.59;80.57
39789;BME280;25478;42.626;23.320;2023-03-04T11:09:54;92896.59;;;7.43;80.55
39789;BME280;25478;42.626;23.320;2023-03-04T11:12:31;92908.25;;;7.49;80.97
39789;BME280;25478;42.626;23.320;2023-03-04T11:14:57;92902.66;;;7.50;81.76
39789;BME280;25478;42.626;23.320;2023-03-04T11:22:28;92891.66;;;7.38;82.19
39789;BME280;25478;42.626;23.320;2023-03-04T11:25:04;92891.66;;;7.38;82.49
39789;BME280;25478;42.626;23.320;2023-03-04T11:27:39;92890.91;;;7.37;82.56
39789;BME280;25478;42.626;23.320;2023-03-04T11:30:31;92888.19;;;7.30;82.51
39789;BME280;25478;42.626;23.320;2023-03-04T11:33:10;92882.53;;;7.24;82.86
39789;BME280;25478;42.626;23.320;2023-03-04T11:35:49;92879.91;;;7.24;83.10
39789;BME280;25478;42.626;23.320;2023-03-04T11:38:25;92877.03;;;7.33;83.80
39789;BME280;25478;42.626;23.320;2023-03-04T11:41:15;92873.03;;;7.46;84.37
39789;BME280;25478;42.626;23.320;2023-03-04T11:43:45;92875.44;;;7.58;83.42
39789;BME280;25478;42.626;23.320;2023-03-04T11:48:55;92871.09;;;7.77;82.82
39789;BME280;25478;42.626;23.320;2023-03-04T12:02:50;92854.56;;;8.13;80.69
39789;BME280;25478;42.626;23.320;2023-03-04T12:05:26;92849.69;;;8.15;80.30
39789;BME280;25478;42.626;23.320;2023-03-04T12:18:38;92834.19;;;7.93;81.01
39789;BME280;25478;42.626;23.320;2023-03-04T12:29:52;92831.63;;;8.00;79.73
39789;BME280;25478;42.626;23.320;2023-03-04T12:43:27;92819.97;;;7.94;79.96
39789;BME280;25478;42.626;23.320;2023-03-04T12:48:31;92811.88;;;7.65;80.69
39789;BME280;25478;42.626;23.320;2023-03-04T12:58:51;92802.28;;;7.83;80.66
39789;BME280;25478;42.626;23.320;2023-03-04T13:01:37;92796.34;;;7.90;80.13
39789;BME280;25478;42.626;23.320;2023-03-04T13:09:56;92784.38;;;7.93;79.84
39789;BME280;25478;42.626;23.320;2023-03-04T13:12:23;92781.44;;;8.01;79.63
39789;BME280;25478;42.626;23.320;2023-03-04T13:17:52;92776.59;;;8.03;78.69
39789;BME280;25478;42.626;23.320;2023-03-04T13:20:39;92781.84;;;8.03;79.01
39789;BME280;25478;42.626;23.320;2023-03-04T13:28:22;92771.41;;;8.10;79.05
39789;BME280;25478;42.626;23.320;2023-03-04T13:43:45;92761.66;;;8.07;77.92
39789;BME280;25478;42.626;23.320;2023-03-04T14:04:17;92746.75;;;7.67;79.33
39789;BME280;25478;42.626;23.320;2023-03-04T14:06:48;92739.28;;;7.66;79.04
39789;BME280;25478;42.626;23.320;2023-03-04T14:09:26;92735.53;;;7.67;79.35
39789;BME280;25478;42.626;23.320;2023-03-04T14:11:55;92724.63;;;7.61;79.82
39789;BME280;25478;42.626;23.320;2023-03-04T14:14:57;92734.53;;;7.82;79.60
39789;BME280;25478;42.626;23.320;2023-03-04T14:17:34;92743.22;;;7.97;79.08
39789;BME280;25478;42.626;23.320;2023-03-04T14:20:04;92738.00;;;8.00;79.53
39789;BME280;25478;42.626;23.320;2023-03-04T14:22:38;92728.94;;;7.87;79.07
39789;BME280;25478;42.626;23.320;2023-03-04T14:27:39;92726.75;;;7.96;79.02
39789;BME280;25478;42.626;23.320;2023-03-04T14:30:20;92713.94;;;7.87;78.92
39789;BME280;25478;42.626;23.320;2023-03-04T14:32:46;92725.97;;;7.92;78.71
39789;BME280;25478;42.626;23.320;2023-03-04T14:35:19;92704.84;;;7.71;79.40
39789;BME280;25478;42.626;23.320;2023-03-04T14:37:53;92721.75;;;7.77;79.39
39789;BME280;25478;42.626;23.320;2023-03-04T14:40:27;92719.22;;;7.91;79.18
39789;BME280;25478;42.626;23.320;2023-03-04T14:43:01;92717.78;;;8.01;79.37
39789;BME280;25478;42.626;23.320;2023-03-04T14:45:28;92718.19;;;8.06;79.26
39789;BME280;25478;42.626;23.320;2023-03-04T14:48:04;92713.72;;;8.10;78.46
39789;BME280;25478;42.626;23.320;2023-03-04T14:50:31;92710.00;;;8.15;78.50
39789;BME280;25478;42.626;23.320;2023-03-04T14:55:31;92709.97;;;8.08;78.54
39789;BME280;25478;42.626;23.320;2023-03-04T14:58:20;92706.56;;;8.00;79.01
39789;BME280;25478;42.626;23.320;2023-03-04T15:00:46;92694.09;;;7.83;79.57
39789;BME280;25478;42.626;23.320;2023-03-04T15:03:24;92703.09;;;7.85;79.01
39789;BME280;25478;42.626;23.320;2023-03-04T15:05:52;92703.84;;;7.82;79.33
39789;BME280;25478;42.626;23.320;2023-03-04T15:08:26;92698.59;;;7.82;79.59